Aviation Digital Data Service (ADDS)

Output produced by METARs form (0513 UTC 18 October 2018)
found at http://aviationweather.gov/metar/data/
 
KSHV 180456Z 04008KT 10SM FEW047 BKN075 14/10 A3033 RMK AO2 SLP269 T01440100 $
KSHV 180006Z 1800/1824 04008KT P6SM VCSH OVC050 
     FM180600 04008KT P6SM OVC050 
     FM181800 05010KT P6SM OVC100